Fresno, CA

1:09 PM PDT en Septiembre 21, 2014 (GMT -0700)
Clovis California | Change Station
CLOSE
Current Station
Estación meteorológica personal
Location: Clovis, CA
Altura: 352 ft
Estaciones meteorológicas cercanas

Alt 352 ft 36.86 °N, 119.73 °W | Updated 13 seconds ago

Despejado
Despejado
84.4 ° F
Sensación térmica 84 ° F
N
0.0
Viento Variable Viento desde Norte
Gusts 0.0 mph

Hoy
Alta -- | Baja -- ° F
--% Posibilidad de precipitaciones
Ayer
Alta -- | Baja -- ° F
Precip. -- pul
6:46 AM 6:57 PM
Creciente menguante, 5% visible
Presión 29.94 pul
Visibilidad 10.0 Millas
Nubes Baja 10000 ft
Baja 13000 ft
Índice de calor 84 ° F
Punto de rocío 59 ° F
Humedad 42%
Precipitaciones 0.00 pul
Espesor de la nieve 1 in , 0 in , 0 in
UV 3.3 de una escala de 12
Polen 5.80 de una escala de 12
Calidad del aire No disponible.
Flu Activity No disponible.
METAR KFAT 211953Z 27004KT 10SM FEW100 FEW130 29/12 A2994 RMK AO2 SLP136 T02890122

More Conditions Fewer Conditions

Presión 29.94 pul
Visibilidad 10.0 Millas
Nubes Baja 10000 ft
Baja 13000 ft
Índice de calor 84 ° F
Punto de rocío 59 ° F
Humedad 42%
Precipitaciones 0.00 pul
Espesor de la nieve 1 in , 0 in , 0 in
UV 3.3 de una escala de 12
Polen 5.80 de una escala de 12
Calidad del aire No disponible.
Flu Activity No disponible.
METAR KFAT 211953Z 27004KT 10SM FEW100 FEW130 29/12 A2994 RMK AO2 SLP136 T02890122

More Conditions Fewer Conditions

10-Day Weather Forecast

Almanac

Astronomía

Sep. 21, 2014 Salida Puesta
Hora real 6:46 AM PDT 6:57 PM PDT
Crepúsculo civil 6:20 AM PDT 7:23 PM PDT
Crepúsculo náutico 5:50 AM PDT 7:53 PM PDT
Crepúsculo astronómico 5:19 AM PDT 8:24 PM PDT
Luna 4:27 AM PDT 5:34 PM PDT
Horas de luz 13h 02m
Horas de luz
12h 11m
Tomorrow will be 2m 20s shorter.
Creciente menguante, 5% of the Moon is Illuminated
Hoy
Creciente menguante
Sep 24
Nueva
Oct 1
Cuarto creciente
Oct 8
Luna llena
Oct 15
Cuarto menguante

Extremos de hoy

Máximos del estado Bajos del estado

Community

WunderPhotos

Upload Photos

1,755,241 ¡fotos cargadas!

Nearby

Calidad del aire

  Calidad del aire Índice AQ Contaminante
Ayer Moderada
OZONE
Domingo Moderada
OZONE
Lunes Moderada
OZONE
Martes Moderada
OZONE
Miércoles Moderada
OZONE
Jueves Moderada
OZONE

Grosos de nieve

Estación Profundido Altura
Leavitt Meadows 1 in 7200 ft
Burnside Lake 0 in 8139 ft
Echo Peak 0 in 7800 ft
Tahoe City Cross 0 in 6750 ft
Summit Meadow 0 in 9122 ft

Actividad de terremotos

Ciudad Distance Mag. Tiempo y dato
Inyokern, California 120 Millas 3.1 5:33 PM PDT
2014-09-19
Livermore, California 120 Millas 2.6 3:37 AM PDT
2014-09-19
Corcoran, California 54 Millas 2.9 3:59 PM PDT
2014-09-18
Magnitud mínima muestra es 2,5.

Temperaturas de aguas costeras

Lugar Temperatura
Sin partes meteorológicos de las estaciones

Estaciones meteorológicas cercanas